KFWA/FWA METAR and TAF weather

Enter ICAO airport designator
Station Type Date Time Source
KFWA METAR 2021/04/13 07:54 UTC NOAA

KFWA 130754Z 27005KT 10SM FEW120 FEW280 07/02 A3003 RMK AO2 SLP171 T00670017


Station Type Date Time Source
KFWA Decoded METAR 2021/04/13 07:54 UTC NOAA

FORT WAYNE INTERNATIONAL, IN, United States (KFWA) 41-00N 85-12W 248M
Apr 13, 2021 - 03:54 AM EDT / 2021.04.13 0754 UTC
Wind: from the W (270 degrees) at 6 MPH (5 KT):0
Visibility: 10 mile(s):0
Sky conditions: mostly clear
Temperature: 44.1 F (6.7 C)
Dew Point: 35.1 F (1.7 C)
Relative Humidity: 70%
Pressure (altimeter): 30.03 in. Hg (1016 hPa)
ob: KFWA 130754Z 27005KT 10SM FEW120 FEW280 07/02 A3003 RMK AO2 SLP171 T00670017
cycle: 8

Station Type Date Time Source
KFWA TAF 2021/04/13 06:22 UTC NOAA

TAF KFWA 130520Z 1306/1406 26005KT P6SM SCT250
FM131600 24012G20KT P6SM FEW060
FM140000 26005KT P6SM SCT250

Example: see airport list